Hauptseite
METAR-TAF:

METAR-TAF

Flughäfen :

Mitiga International Airport

Tripolis, Libyen

Breite: 32-54N, Länge: 13-17E, Höhe: 11 m

Beobachtung

Neuester Wetterbericht von vor 7 Stunden und 53 Minuten, um 20:55 UTC
Wind 3 kt aus Süd
Temperatur 19°C
Luftfeuchtigkeit 64%
Luftdruck 1024 hPa
Sichtweite: 7000 m
Leicht bewölkt in der Höhe von 2500 ft
Aufgelockert bewölkt in der Höhe von 7000 ft

METAR: HLLM 142055Z 17003KT 7000 FEW025 SCT070 19/12 Q1024

Zeit: 06:48 (04:48 UTC)

Prognose

Neuester Wetterbericht von vor 17 Stunden und 48 Minuten, um 11:00 UTC
Gültige Prognose vom 14 um 12 UTC bis 15 um 12 UTC
Wind 10 kt aus Südost
Sichtweite: 8000 m
Aufgelockert bewölkt in der Höhe von 2500 ft

TAF: HLLM 141100Z 1412/1512 04010KT 9999 SCT025 BECMG1500/1502 VRB02KT BECMG1509/1511 14010KT 8000 NSC

Wetterbeobachtungen und Prognosen von mehr als 4000 Flughäfen (METAR und TAF Bericht).

Die verfügbaren Stationen werden durch gelbe und rote Markierungen auf der Karte dargestellt.

Führen Sie die Maus auf sie, um den Namen der Station zu sehen.

Darauf klicken, um die Beobachtung von Wetterbeobachtungen und Prognosen zu sehen.

Um die Karte zu ändern : klicken Sie auf den grünen Tasten mit einem schwarzen Kreuz Zum Vergrößern, auf den grünen Button mit einem Gedankenstrich zu verkleinern, oder auf die grünen Pfeile für benachbarte Karten.


METAR-TAF: